Time;durP1;ratioP1;P1;durP2;ratioP2;P2;SDS_P1;SDS_P2;PMS_P1;PMS_P2;Temp;Humidity;BMP_temperature;BMP_pressure;BME280_temperature;BME280_humidity;BME280_pressure;Samples;Min_cycle;Max_cycle;Signal;HPM_P1;HPM_P2
2023/03/29 00:00:41;;;;;;;3.85;1.70;;;18.80;46.80;;;;;;5115408;27;20658;-75
2023/03/29 00:03:08;;;;;;;3.70;1.75;;;18.80;46.80;;;;;;5133829;27;20638;-75
2023/03/29 00:05:40;;;;;;;3.65;1.70;;;18.70;46.80;;;;;;5133485;27;20292;-75
2023/03/29 00:08:07;;;;;;;2.97;1.73;;;18.70;46.90;;;;;;5133763;27;20212;-75
2023/03/29 00:10:35;;;;;;;3.47;1.70;;;18.70;47.00;;;;;;5133443;27;20241;-75
2023/03/29 00:13:04;;;;;;;5.07;1.95;;;18.80;47.10;;;;;;5133560;27;20254;-75
2023/03/29 00:15:31;;;;;;;4.72;1.80;;;18.70;47.00;;;;;;5133234;27;20658;-75
2023/03/29 00:17:58;;;;;;;5.13;1.83;;;18.70;47.00;;;;;;5133524;27;20686;-75
2023/03/29 00:20:25;;;;;;;3.63;1.70;;;18.70;47.10;;;;;;5133669;27;20184;-74
2023/03/29 00:22:53;;;;;;;4.03;1.67;;;18.70;47.10;;;;;;5133717;27;20217;-75
2023/03/29 00:25:20;;;;;;;4.07;1.65;;;18.70;47.10;;;;;;5133341;27;20212;-74
2023/03/29 00:27:47;;;;;;;4.53;1.80;;;18.70;47.20;;;;;;5115200;28;20220;-75
2023/03/29 00:30:17;;;;;;;3.47;1.40;;;18.70;47.90;;;;;;5132622;27;20189;-74
2023/03/29 00:32:44;;;;;;;5.40;1.60;;;18.70;47.30;;;;;;5115321;28;20280;-75
2023/03/29 00:35:11;;;;;;;2.28;1.60;;;18.70;47.30;;;;;;5133468;28;20267;-75
2023/03/29 00:37:40;;;;;;;4.18;1.90;;;18.70;47.30;;;;;;5132898;27;20288;-75
2023/03/29 00:40:09;;;;;;;4.60;1.70;;;18.70;47.40;;;;;;5133119;28;20204;-74
2023/03/29 00:42:37;;;;;;;4.20;1.50;;;18.70;47.40;;;;;;5133407;28;20604;-75
2023/03/29 00:45:07;;;;;;;5.00;1.70;;;18.60;47.40;;;;;;5133176;28;20281;-75
2023/03/29 00:47:40;;;;;;;5.85;2.25;;;18.70;47.50;;;;;;5132803;28;20220;-74
2023/03/29 00:50:13;;;;;;;6.20;1.77;;;18.60;47.40;;;;;;5133315;28;20217;-75
2023/03/29 00:52:45;;;;;;;3.42;1.88;;;18.60;47.50;;;;;;5133138;28;20728;-75
2023/03/29 00:55:16;;;;;;;3.42;1.67;;;18.60;47.50;;;;;;5115166;28;20192;-75
2023/03/29 00:57:45;;;;;;;3.63;1.55;;;18.60;47.60;;;;;;5132935;28;20216;-75
2023/03/29 01:00:17;;;;;;;5.03;1.73;;;18.60;47.60;;;;;;5133184;28;20180;-74
2023/03/29 01:02:52;;;;;;;4.88;1.92;;;18.60;47.60;;;;;;5133004;28;20216;-75
2023/03/29 01:05:25;;;;;;;4.28;1.80;;;18.60;47.70;;;;;;5132633;28;20228;-75
2023/03/29 01:07:59;;;;;;;5.45;1.70;;;18.60;47.70;;;;;;5115074;28;20227;-75
2023/03/29 01:10:31;;;;;;;4.88;1.95;;;18.60;47.70;;;;;;5097975;28;20241;-75
2023/03/29 01:13:05;;;;;;;6.47;2.00;;;18.60;47.80;;;;;;5132985;28;20216;-75
2023/03/29 01:15:33;;;;;;;4.50;1.77;;;18.60;47.80;;;;;;5132754;28;20230;-75
2023/03/29 01:18:02;;;;;;;3.20;1.60;;;18.60;47.90;;;;;;5132727;28;20742;-74
2023/03/29 01:20:44;;;;;;;3.45;1.60;;;18.60;47.80;;;;;;5132631;28;20242;-74
2023/03/29 01:23:37;;;;;;;3.65;1.85;;;18.60;47.90;;;;;;5133188;28;20217;-74
2023/03/29 01:26:14;;;;;;;3.63;1.90;;;18.60;48.00;;;;;;5132564;28;20755;-75
2023/03/29 01:28:49;;;;;;;4.90;1.88;;;18.60;48.00;;;;;;5132548;28;20217;-74
2023/03/29 01:31:21;;;;;;;4.80;1.85;;;18.60;48.00;;;;;;5132591;28;20192;-74
2023/03/29 01:33:53;;;;;;;5.07;1.80;;;18.60;48.10;;;;;;5114311;28;20743;-74
2023/03/29 01:36:27;;;;;;;4.47;1.80;;;18.60;48.10;;;;;;5132678;28;20196;-75
2023/03/29 01:38:57;;;;;;;5.80;1.90;;;18.60;48.20;;;;;;5132488;28;20199;-75
2023/03/29 01:41:34;;;;;;;3.30;1.55;;;18.60;48.20;;;;;;5132474;27;20654;-75
2023/03/29 01:44:10;;;;;;;3.72;1.85;;;18.60;48.20;;;;;;5135915;27;20188;-75
2023/03/29 01:46:44;;;;;;;3.83;1.50;;;18.60;48.20;;;;;;5136248;27;20220;-74
2023/03/29 01:49:19;;;;;;;3.30;1.45;;;18.60;48.20;;;;;;5125974;27;20191;-75
2023/03/29 01:51:52;;;;;;;4.18;1.88;;;18.60;48.20;;;;;;5142799;27;20212;-75
2023/03/29 01:54:24;;;;;;;4.20;1.70;;;18.60;48.30;;;;;;5134997;27;20184;-74
2023/03/29 01:56:52;;;;;;;3.72;2.05;;;18.50;48.20;;;;;;5136220;27;20269;-75
2023/03/29 01:59:25;;;;;;;3.55;2.15;;;18.60;48.40;;;;;;5135842;27;20234;-75
2023/03/29 02:01:57;;;;;;;5.00;2.45;;;18.60;48.40;;;;;;5134645;27;20616;-75
2023/03/29 02:04:30;;;;;;;3.30;1.70;;;18.60;48.40;;;;;;5135581;27;20233;-75
2023/03/29 02:06:59;;;;;;;4.70;2.08;;;18.60;48.50;;;;;;5135839;27;20234;-75
2023/03/29 02:09:28;;;;;;;3.90;1.60;;;18.50;48.40;;;;;;5136108;27;20256;-74
2023/03/29 02:11:59;;;;;;;3.05;1.63;;;18.50;48.40;;;;;;5135961;27;20326;-74
2023/03/29 02:14:29;;;;;;;3.70;1.80;;;18.50;48.50;;;;;;5135923;27;20230;-75
2023/03/29 02:16:56;;;;;;;3.63;1.50;;;18.60;48.60;;;;;;5135686;27;20216;-75
2023/03/29 02:19:26;;;;;;;3.13;1.70;;;18.50;48.50;;;;;;5135706;27;20253;-74
2023/03/29 02:22:02;;;;;;;2.30;1.50;;;18.50;48.50;;;;;;5135440;27;20212;-75
2023/03/29 02:24:31;;;;;;;2.78;1.80;;;18.50;48.60;;;;;;5135436;27;20180;-75
2023/03/29 02:27:00;;;;;;;3.00;1.58;;;18.50;48.60;;;;;;5135489;27;20231;-75
2023/03/29 02:29:28;;;;;;;5.18;1.80;;;18.50;48.60;;;;;;5135566;27;20272;-75
2023/03/29 02:31:59;;;;;;;3.28;1.52;;;18.50;48.70;;;;;;5135561;27;20217;-75
2023/03/29 02:34:30;;;;;;;2.08;1.50;;;18.50;48.70;;;;;;5135497;27;20189;-75
2023/03/29 02:37:00;;;;;;;2.55;1.83;;;18.50;48.80;;;;;;5135362;27;20212;-75
2023/03/29 02:39:30;;;;;;;3.03;1.50;;;18.50;48.90;;;;;;5135380;27;20646;-74
2023/03/29 02:41:58;;;;;;;1.85;1.30;;;18.50;48.90;;;;;;5135055;27;20697;-75
2023/03/29 02:44:30;;;;;;;3.40;1.60;;;18.50;48.90;;;;;;5133667;27;20602;-75
2023/03/29 02:47:01;;;;;;;2.88;1.40;;;18.50;49.00;;;;;;5135108;27;20228;-75
2023/03/29 02:49:28;;;;;;;3.20;1.52;;;18.50;49.00;;;;;;5135196;27;20211;-75
2023/03/29 02:52:00;;;;;;;3.00;1.52;;;18.40;48.90;;;;;;5135171;27;20220;-75
2023/03/29 02:54:30;;;;;;;3.20;1.42;;;18.40;49.00;;;;;;5134410;27;20237;-75
2023/03/29 02:56:59;;;;;;;2.33;1.48;;;18.50;49.00;;;;;;5134423;27;20220;-75
2023/03/29 02:59:29;;;;;;;3.40;1.48;;;18.50;49.00;;;;;;5135124;27;20184;-75
2023/03/29 03:01:59;;;;;;;1.63;1.35;;;18.50;49.10;;;;;;5135003;27;20255;-75
2023/03/29 03:04:26;;;;;;;3.72;1.50;;;18.40;49.10;;;;;;5134718;27;20212;-75
2023/03/29 03:06:53;;;;;;;2.30;1.45;;;18.40;49.10;;;;;;5134783;27;20228;-75
2023/03/29 03:09:21;;;;;;;3.72;1.92;;;18.40;49.20;;;;;;5135085;27;20221;-75
2023/03/29 03:11:48;;;;;;;4.10;1.45;;;18.40;49.10;;;;;;5134701;27;20598;-75
2023/03/29 03:14:15;;;;;;;3.13;1.75;;;18.40;49.20;;;;;;5134724;27;20249;-75
2023/03/29 03:16:42;;;;;;;3.25;1.75;;;18.40;49.20;;;;;;5134224;27;20618;-74
2023/03/29 03:19:12;;;;;;;2.38;1.60;;;18.40;49.40;;;;;;5134717;27;20245;-74
2023/03/29 03:21:39;;;;;;;3.20;1.50;;;18.40;49.30;;;;;;5134171;27;20269;-74
2023/03/29 03:24:07;;;;;;;2.30;1.33;;;18.40;49.40;;;;;;5134192;27;20237;-75
2023/03/29 03:26:37;;;;;;;2.17;1.48;;;18.40;49.40;;;;;;5134379;27;20303;-75
2023/03/29 03:29:04;;;;;;;1.80;1.27;;;18.40;49.40;;;;;;5134283;27;20584;-75
2023/03/29 03:31:32;;;;;;;2.78;1.75;;;18.40;49.40;;;;;;5134340;27;20222;-74
2023/03/29 03:33:59;;;;;;;3.40;1.70;;;18.40;49.60;;;;;;5134562;27;20222;-75
2023/03/29 03:36:30;;;;;;;3.13;1.60;;;18.40;49.50;;;;;;5134243;27;20180;-74
2023/03/29 03:38:57;;;;;;;5.22;1.95;;;18.40;49.60;;;;;;5132868;27;20216;-75
2023/03/29 03:41:25;;;;;;;2.85;1.42;;;18.40;49.60;;;;;;5133843;27;20646;-75
2023/03/29 03:43:52;;;;;;;3.50;1.65;;;18.40;49.60;;;;;;5134307;27;20295;-75
2023/03/29 03:46:19;;;;;;;3.40;1.60;;;18.40;49.60;;;;;;5132441;27;20252;-74
2023/03/29 03:48:47;;;;;;;3.53;1.92;;;18.40;49.60;;;;;;5133029;27;20246;-75
2023/03/29 03:51:14;;;;;;;4.40;1.92;;;18.40;49.60;;;;;;5133984;27;20188;-75
2023/03/29 03:53:43;;;;;;;4.35;1.45;;;18.40;49.60;;;;;;5134224;27;20216;-75
2023/03/29 03:56:12;;;;;;;1.90;1.20;;;18.40;49.60;;;;;;5133595;27;20642;-75
2023/03/29 03:58:40;;;;;;;2.15;1.60;;;18.40;49.60;;;;;;5133811;27;20717;-75
2023/03/29 04:01:07;;;;;;;2.53;1.35;;;18.40;49.60;;;;;;5133345;27;20184;-75
2023/03/29 04:03:36;;;;;;;2.03;1.42;;;18.40;49.60;;;;;;5133810;27;20224;-73
2023/03/29 04:06:03;;;;;;;2.78;1.55;;;18.40;49.60;;;;;;5132489;27;20240;-75
2023/03/29 04:08:32;;;;;;;2.08;1.33;;;18.40;49.70;;;;;;5134035;27;20208;-75
2023/03/29 04:11:00;;;;;;;2.50;1.40;;;18.40;49.60;;;;;;5133722;27;20232;-75
2023/03/29 04:13:28;;;;;;;1.98;1.40;;;18.40;49.60;;;;;;5133773;27;20219;-75
2023/03/29 04:15:55;;;;;;;3.70;1.70;;;18.40;49.70;;;;;;5133465;27;20192;-75
2023/03/29 04:18:23;;;;;;;1.63;1.40;;;18.40;49.80;;;;;;5133772;27;20238;-75
2023/03/29 04:20:51;;;;;;;2.45;1.55;;;18.40;49.90;;;;;;5133306;27;20843;-75
2023/03/29 04:23:18;;;;;;;2.20;1.35;;;18.40;49.80;;;;;;5133864;27;20269;-74
2023/03/29 04:25:45;;;;;;;2.83;1.52;;;18.40;49.90;;;;;;5133344;27;20249;-75
2023/03/29 04:28:15;;;;;;;2.40;1.27;;;18.40;50.00;;;;;;5133460;27;20215;-75
2023/03/29 04:30:43;;;;;;;2.90;1.45;;;18.40;50.60;;;;;;5132316;28;20192;-75
2023/03/29 04:33:10;;;;;;;2.50;1.50;;;18.40;50.00;;;;;;5133362;27;20220;-75
2023/03/29 04:35:37;;;;;;;1.85;1.30;;;18.40;50.00;;;;;;5133420;27;20192;-75
2023/03/29 04:38:08;;;;;;;2.17;1.60;;;18.40;50.00;;;;;;5133386;27;20209;-75
2023/03/29 04:40:36;;;;;;;2.17;1.45;;;18.30;49.90;;;;;;5133138;27;20554;-74
2023/03/29 04:43:03;;;;;;;3.03;1.50;;;18.30;50.00;;;;;;5132230;28;20269;-75
2023/03/29 04:45:32;;;;;;;2.03;1.40;;;18.30;50.00;;;;;;5133311;27;20181;-74
2023/03/29 04:47:59;;;;;;;2.20;1.30;;;18.30;50.00;;;;;;5132956;27;20757;-75
2023/03/29 04:50:27;;;;;;;3.38;1.27;;;18.30;50.00;;;;;;5133232;27;20184;-74
2023/03/29 04:52:54;;;;;;;2.22;1.50;;;18.40;50.10;;;;;;5133094;27;20268;-75
2023/03/29 04:55:21;;;;;;;2.13;1.40;;;18.40;50.10;;;;;;5133012;27;20180;-75
2023/03/29 04:57:48;;;;;;;2.20;1.42;;;18.40;50.10;;;;;;5133200;27;20261;-74
2023/03/29 05:00:16;;;;;;;3.60;1.48;;;18.40;50.10;;;;;;5133018;27;20617;-75
2023/03/29 05:02:46;;;;;;;2.25;1.40;;;18.40;50.10;;;;;;5133204;27;20241;-75
2023/03/29 05:05:14;;;;;;;3.15;1.67;;;18.40;50.10;;;;;;5132760;27;20216;-75
2023/03/29 05:07:41;;;;;;;1.52;1.35;;;18.40;50.10;;;;;;5133036;27;20231;-75
2023/03/29 05:10:09;;;;;;;3.83;1.83;;;18.40;50.10;;;;;;5133255;27;20185;-75
2023/03/29 05:12:36;;;;;;;3.58;1.77;;;18.40;50.10;;;;;;5133103;27;20208;-75
2023/03/29 05:15:04;;;;;;;3.45;1.67;;;18.40;50.10;;;;;;5133013;27;20275;-75
2023/03/29 05:17:31;;;;;;;3.53;1.58;;;18.40;50.10;;;;;;5133686;27;20769;-74
2023/03/29 05:20:00;;;;;;;3.28;1.63;;;18.40;50.00;;;;;;5136432;27;20538;-75
2023/03/29 05:22:28;;;;;;;3.25;1.42;;;18.50;50.10;;;;;;5136556;27;20734;-75
2023/03/29 05:24:56;;;;;;;2.28;1.35;;;18.50;50.10;;;;;;5136606;27;20649;-75
2023/03/29 05:27:23;;;;;;;3.25;1.70;;;18.50;50.10;;;;;;5136357;27;20728;-75
2023/03/29 05:29:50;;;;;;;1.85;1.33;;;18.50;50.10;;;;;;5114565;27;20245;-75
2023/03/29 05:32:18;;;;;;;3.63;1.50;;;18.50;50.10;;;;;;5136333;27;20216;-74
2023/03/29 05:34:45;;;;;;;3.63;1.58;;;18.50;50.10;;;;;;5136411;27;20283;-75
2023/03/29 05:37:14;;;;;;;2.35;1.38;;;18.50;50.10;;;;;;5136122;27;20272;-75
2023/03/29 05:39:41;;;;;;;3.28;1.33;;;18.50;50.10;;;;;;5136219;27;20185;-75
2023/03/29 05:42:11;;;;;;;3.30;1.40;;;18.60;50.10;;;;;;5136517;27;20207;-74
2023/03/29 05:44:38;;;;;;;3.05;1.48;;;18.50;50.00;;;;;;5136032;27;20196;-75
2023/03/29 05:47:06;;;;;;;3.40;1.83;;;18.50;50.00;;;;;;5135982;27;20223;-75
2023/03/29 05:49:33;;;;;;;4.78;1.73;;;18.60;50.10;;;;;;5136453;27;20180;-75
2023/03/29 05:52:01;;;;;;;2.42;1.65;;;18.60;50.10;;;;;;5136319;27;20605;-75
2023/03/29 05:54:30;;;;;;;2.50;1.58;;;18.60;50.10;;;;;;5136015;27;20783;-75
2023/03/29 05:56:57;;;;;;;3.90;1.65;;;18.60;50.10;;;;;;5135846;27;20189;-75
2023/03/29 05:59:27;;;;;;;2.42;1.65;;;18.60;50.10;;;;;;5136259;27;20210;-75
2023/03/29 06:01:54;;;;;;;2.33;1.58;;;18.60;50.00;;;;;;5136158;27;20192;-75
2023/03/29 06:04:21;;;;;;;3.50;1.50;;;18.60;50.00;;;;;;5135783;27;20694;-74
2023/03/29 06:06:48;;;;;;;2.90;1.65;;;18.60;50.00;;;;;;5135777;27;20723;-75
2023/03/29 06:09:16;;;;;;;4.10;1.80;;;18.60;49.90;;;;;;5135844;27;20220;-75
2023/03/29 06:11:45;;;;;;;2.45;1.60;;;18.60;49.80;;;;;;5134530;27;20196;-75
2023/03/29 06:14:13;;;;;;;4.50;1.98;;;18.60;49.80;;;;;;5135843;27;20624;-75
2023/03/29 06:16:42;;;;;;;2.38;1.40;;;18.60;49.80;;;;;;5135809;27;20218;-74
2023/03/29 06:19:09;;;;;;;3.45;1.85;;;18.70;49.90;;;;;;5135458;27;20220;-74
2023/03/29 06:21:36;;;;;;;4.72;1.80;;;18.70;49.90;;;;;;5135830;27;20188;-75
2023/03/29 06:24:05;;;;;;;4.57;1.70;;;18.60;49.80;;;;;;5135425;27;20237;-75
2023/03/29 06:26:32;;;;;;;4.45;1.50;;;18.70;49.80;;;;;;5133950;27;20682;-74
2023/03/29 06:29:03;;;;;;;3.10;1.60;;;18.70;49.80;;;;;;5135040;27;20216;-75
2023/03/29 06:31:30;;;;;;;4.05;1.73;;;18.70;49.80;;;;;;5135388;27;20567;-75
2023/03/29 06:33:58;;;;;;;5.20;1.50;;;18.70;49.80;;;;;;5135453;27;20685;-75
2023/03/29 06:36:26;;;;;;;2.30;1.60;;;18.70;49.80;;;;;;5135519;27;20238;-75
2023/03/29 06:38:53;;;;;;;4.88;2.03;;;18.70;49.80;;;;;;5135342;27;20244;-75
2023/03/29 06:41:20;;;;;;;2.63;1.77;;;18.70;49.80;;;;;;5135445;27;20714;-75
2023/03/29 06:43:47;;;;;;;4.90;1.80;;;18.70;49.80;;;;;;5135112;27;20220;-74
2023/03/29 06:46:17;;;;;;;5.97;1.65;;;18.70;49.80;;;;;;5134170;27;20229;-74
2023/03/29 06:48:44;;;;;;;3.45;1.55;;;18.70;49.80;;;;;;5135258;27;20693;-75
2023/03/29 06:51:12;;;;;;;2.95;1.70;;;18.70;49.80;;;;;;5135293;27;20191;-74
2023/03/29 06:53:39;;;;;;;4.05;1.40;;;18.70;49.80;;;;;;5135176;27;20623;-74
2023/03/29 06:56:07;;;;;;;2.35;1.70;;;18.80;49.90;;;;;;5135090;27;20721;-74
2023/03/29 06:58:35;;;;;;;2.60;1.60;;;18.80;49.90;;;;;;5135153;27;20223;-74
2023/03/29 07:01:02;;;;;;;3.67;1.80;;;18.80;49.90;;;;;;5134968;27;20191;-75
2023/03/29 07:03:34;;;;;;;2.97;1.70;;;18.80;49.90;;;;;;5134904;27;20213;-75
2023/03/29 07:06:08;;;;;;;3.42;1.70;;;18.80;49.90;;;;;;5134532;27;20311;-75
2023/03/29 07:08:42;;;;;;;4.60;2.08;;;18.80;50.40;;;;;;5134855;27;20231;-75
2023/03/29 07:11:11;;;;;;;4.13;1.70;;;18.80;50.40;;;;;;5152064;27;20728;-75
2023/03/29 07:13:41;;;;;;;7.47;1.85;;;18.80;50.70;;;;;;5139478;27;20327;-75
2023/03/29 07:16:11;;;;;;;4.07;1.92;;;18.90;50.70;;;;;;5130489;27;20196;-74
2023/03/29 07:18:40;;;;;;;4.28;1.80;;;18.80;50.70;;;;;;5137667;27;20252;-75
2023/03/29 07:21:08;;;;;;;6.75;2.10;;;18.90;50.70;;;;;;5147231;27;20272;-75
2023/03/29 07:23:36;;;;;;;5.00;1.83;;;18.90;50.60;;;;;;5151677;27;20257;-75
2023/03/29 07:26:04;;;;;;;7.20;2.03;;;18.80;51.10;;;;;;5151664;27;20199;-75
2023/03/29 07:28:31;;;;;;;4.95;2.10;;;18.80;50.90;;;;;;5148116;27;20247;-75
2023/03/29 07:31:05;;;;;;;5.38;1.85;;;18.90;50.90;;;;;;5141818;27;20187;-76
2023/03/29 07:33:33;;;;;;;5.35;2.28;;;18.90;50.90;;;;;;5151517;27;20216;-74
2023/03/29 07:36:05;;;;;;;4.53;2.03;;;18.90;50.80;;;;;;5151236;27;20202;-73
2023/03/29 07:38:32;;;;;;;5.97;1.90;;;18.90;50.80;;;;;;5151060;27;20220;-74
2023/03/29 07:41:03;;;;;;;4.30;1.90;;;18.90;50.70;;;;;;5132503;27;20574;-73
2023/03/29 07:43:30;;;;;;;4.13;1.63;;;19.00;50.80;;;;;;5147549;27;20752;-73
2023/03/29 07:46:01;;;;;;;4.35;1.70;;;19.00;50.70;;;;;;5130560;27;20658;-73
2023/03/29 07:48:29;;;;;;;4.00;1.85;;;19.00;50.80;;;;;;5130719;27;20243;-74
2023/03/29 07:50:57;;;;;;;4.72;2.08;;;19.00;50.80;;;;;;5130563;27;20207;-75
2023/03/29 07:53:25;;;;;;;7.57;1.80;;;19.00;50.80;;;;;;5128806;27;20366;-74
2023/03/29 07:55:53;;;;;;;5.45;2.17;;;19.00;50.80;;;;;;5130314;27;20651;-75
2023/03/29 07:58:21;;;;;;;3.30;2.00;;;19.10;51.00;;;;;;5130123;27;20716;-76
2023/03/29 08:00:49;;;;;;;2.45;1.63;;;19.10;51.00;;;;;;5130209;27;20675;-76
2023/03/29 08:03:16;;;;;;;4.60;2.13;;;19.10;51.00;;;;;;5128873;27;20223;-75
2023/03/29 08:05:44;;;;;;;3.17;1.85;;;19.10;51.00;;;;;;5149338;27;20227;-75
2023/03/29 08:08:12;;;;;;;3.75;1.75;;;19.10;50.90;;;;;;5132770;27;20232;-75
2023/03/29 08:10:43;;;;;;;6.78;2.03;;;19.10;50.90;;;;;;5135593;27;20220;-75
2023/03/29 08:13:11;;;;;;;5.93;2.00;;;19.10;50.90;;;;;;5131674;27;20219;-75
2023/03/29 08:15:44;;;;;;;5.60;2.10;;;19.10;50.90;;;;;;5150209;27;20191;-75
2023/03/29 08:18:12;;;;;;;3.08;1.85;;;19.10;50.90;;;;;;5150794;27;20220;-76
2023/03/29 08:20:39;;;;;;;4.97;2.10;;;19.10;50.90;;;;;;5139770;27;20192;-76
2023/03/29 08:23:07;;;;;;;4.63;1.90;;;19.20;51.00;;;;;;5148138;27;20280;-76
2023/03/29 08:25:35;;;;;;;3.38;1.73;;;19.20;51.10;;;;;;5139262;27;20203;-75
2023/03/29 08:28:05;;;;;;;7.63;2.33;;;19.20;51.20;;;;;;5131887;27;20231;-76
2023/03/29 08:30:32;;;;;;;4.30;2.10;;;19.20;51.20;;;;;;5136934;27;20206;-77
2023/03/29 08:32:59;;;;;;;3.95;1.88;;;19.20;51.10;;;;;;5147709;27;20196;-77
2023/03/29 08:35:27;;;;;;;4.45;1.90;;;19.20;51.00;;;;;;5146179;27;20601;-78
2023/03/29 08:37:54;;;;;;;5.07;2.05;;;19.20;51.00;;;;;;5129267;27;20199;-76
2023/03/29 08:40:25;;;;;;;6.10;1.80;;;19.30;51.20;;;;;;5129725;27;20719;-76
2023/03/29 08:43:25;;;;;;;6.53;1.83;;;19.30;51.80;;;;;;5129720;27;20250;-77
2023/03/29 08:46:03;;;;;;;6.38;2.10;;;19.30;51.20;;;;;;5120941;27;20196;-76
2023/03/29 08:48:34;;;;;;;4.43;1.83;;;19.30;51.20;;;;;;5142546;27;20628;-75
2023/03/29 08:51:05;;;;;;;3.33;1.70;;;19.30;51.20;;;;;;5150012;27;20180;-75
2023/03/29 08:53:40;;;;;;;8.02;1.92;;;19.30;51.20;;;;;;5154180;27;20219;-75
2023/03/29 08:56:11;;;;;;;4.70;2.22;;;19.30;51.20;;;;;;5130411;27;20268;-77
2023/03/29 08:58:39;;;;;;;8.10;2.25;;;19.30;51.20;;;;;;5150942;27;20314;-75
2023/03/29 09:01:10;;;;;;;4.90;2.10;;;19.30;51.20;;;;;;5149461;27;20199;-75
2023/03/29 09:03:43;;;;;;;3.35;1.63;;;19.30;51.20;;;;;;5153943;27;20223;-75
2023/03/29 09:06:12;;;;;;;2.72;1.60;;;19.40;51.20;;;;;;5122026;27;20273;-76
2023/03/29 09:08:42;;;;;;;4.90;1.67;;;19.40;51.20;;;;;;5113088;28;20311;-74
2023/03/29 09:11:38;;;;;;;4.63;1.77;;;19.40;51.20;;;;;;5127221;27;20189;-76
2023/03/29 09:14:25;;;;;;;4.18;1.77;;;19.40;51.40;;;;;;5096918;27;20220;-75
2023/03/29 09:17:00;;;;;;;4.97;1.90;;;19.40;51.20;;;;;;5133186;27;20618;-75
2023/03/29 09:19:39;;;;;;;5.10;2.10;;;19.40;51.20;;;;;;5131733;27;20227;-75
2023/03/29 09:22:16;;;;;;;4.68;1.98;;;19.40;51.20;;;;;;5111885;28;20193;-75
2023/03/29 09:24:57;;;;;;;6.32;1.90;;;19.50;51.20;;;;;;5120214;27;20322;-76
2023/03/29 09:27:30;;;;;;;4.10;1.92;;;19.50;51.20;;;;;;5132370;27;20201;-75
2023/03/29 09:30:06;;;;;;;4.10;1.75;;;19.50;51.20;;;;;;5130313;27;20217;-76
2023/03/29 09:32:41;;;;;;;4.82;1.77;;;19.50;51.20;;;;;;5112492;28;20217;-76
2023/03/29 09:35:17;;;;;;;3.42;2.00;;;19.50;51.10;;;;;;5110744;27;20237;-75
2023/03/29 09:37:46;;;;;;;5.80;1.98;;;19.60;51.20;;;;;;5112176;28;20192;-75
2023/03/29 09:40:17;;;;;;;5.30;1.98;;;19.60;51.20;;;;;;5118285;27;21000;-76
2023/03/29 09:42:45;;;;;;;3.95;2.20;;;19.60;51.20;;;;;;5130189;27;20257;-76
2023/03/29 09:45:13;;;;;;;7.28;2.05;;;19.60;51.20;;;;;;5132357;27;20751;-75
2023/03/29 09:47:46;;;;;;;7.28;1.88;;;19.70;51.20;;;;;;5132461;27;20704;-75
2023/03/29 09:50:16;;;;;;;5.38;2.10;;;19.60;51.20;;;;;;5132112;27;20215;-75
2023/03/29 09:52:45;;;;;;;6.22;2.08;;;19.60;51.10;;;;;;5132839;27;20253;-76
2023/03/29 09:55:15;;;;;;;3.67;2.00;;;19.60;51.10;;;;;;5123743;27;20219;-75
2023/03/29 09:57:43;;;;;;;3.08;1.75;;;19.60;51.10;;;;;;5112006;28;20197;-76
2023/03/29 10:00:12;;;;;;;5.57;2.00;;;19.70;51.20;;;;;;5111842;27;20221;-74
2023/03/29 10:02:41;;;;;;;6.22;1.92;;;19.70;51.90;;;;;;5111421;28;20220;-76
2023/03/29 10:05:15;;;;;;;4.47;2.15;;;19.70;51.20;;;;;;5119319;27;20234;-75
2023/03/29 10:07:53;;;;;;;7.22;1.67;;;19.70;51.20;;;;;;5146573;27;20188;-75
2023/03/29 10:10:23;;;;;;;5.65;2.30;;;19.70;51.20;;;;;;5153099;27;20219;-75
2023/03/29 10:12:54;;;;;;;7.72;2.10;;;19.70;51.20;;;;;;5153333;27;20188;-74
2023/03/29 10:15:21;;;;;;;5.00;2.45;;;19.70;51.20;;;;;;5142774;27;20219;-76
2023/03/29 10:17:58;;;;;;;4.65;2.45;;;19.70;51.50;;;;;;5146966;27;20249;-75
2023/03/29 10:20:26;;;;;;;5.03;1.85;;;19.70;51.30;;;;;;5132402;27;20216;-74
2023/03/29 10:22:57;;;;;;;6.30;2.10;;;19.70;51.60;;;;;;5150866;27;20191;-75
2023/03/29 10:25:27;;;;;;;4.65;2.80;;;19.70;51.70;;;;;;5152470;27;20220;-75
2023/03/29 10:27:58;;;;;;;35.78;25.85;;;19.80;51.60;;;;;;5152930;27;20633;-74
2023/03/29 10:30:27;;;;;;;28.67;19.42;;;19.80;51.40;;;;;;5151849;27;20219;-76
2023/03/29 10:33:15;;;;;;;22.88;15.07;;;19.80;51.40;;;;;;5131868;27;20275;-74
2023/03/29 10:35:42;;;;;;;24.38;12.02;;;19.80;51.60;;;;;;5147833;27;20219;-74
2023/03/29 10:38:13;;;;;;;23.90;9.55;;;19.80;51.70;;;;;;5152773;27;20195;-76
2023/03/29 10:40:45;;;;;;;18.80;7.55;;;19.80;52.70;;;;;;5132254;27;20249;-75
2023/03/29 10:43:15;;;;;;;14.63;6.68;;;19.70;52.70;;;;;;5152784;27;20253;-75
2023/03/29 10:45:42;;;;;;;16.02;5.55;;;19.70;52.50;;;;;;5151991;27;20227;-74
2023/03/29 10:48:12;;;;;;;17.80;5.93;;;19.70;52.60;;;;;;5152301;27;20238;-75
2023/03/29 10:50:41;;;;;;;14.38;5.22;;;19.70;52.90;;;;;;5151806;27;20283;-75
2023/03/29 10:53:16;;;;;;;15.43;4.97;;;19.70;53.00;;;;;;5144529;27;20191;-75
2023/03/29 10:55:52;;;;;;;13.20;4.38;;;19.70;53.20;;;;;;5142421;27;20216;-75
2023/03/29 10:58:32;;;;;;;14.93;4.00;;;19.70;53.10;;;;;;5127147;27;20256;-74
2023/03/29 11:01:00;;;;;;;16.30;3.78;;;19.60;53.10;;;;;;5149836;27;20708;-74
2023/03/29 11:03:47;;;;;;;11.90;3.25;;;19.60;53.10;;;;;;5131353;27;20791;-73
2023/03/29 11:06:25;;;;;;;12.98;3.33;;;19.60;53.70;;;;;;5132253;27;20311;-75
2023/03/29 11:08:57;;;;;;;16.13;3.67;;;19.60;53.10;;;;;;5149707;27;20215;-75
2023/03/29 11:11:44;;;;;;;12.10;3.17;;;19.50;53.30;;;;;;5151753;27;20191;-75
2023/03/29 11:14:19;;;;;;;11.60;3.05;;;19.60;53.10;;;;;;5151485;27;20220;-75
2023/03/29 11:16:56;;;;;;;10.32;2.80;;;19.50;53.00;;;;;;5151408;27;20675;-76
2023/03/29 11:19:55;;;;;;;14.93;3.38;;;19.50;53.00;;;;;;5150763;27;20231;-75
2023/03/29 11:22:30;;;;;;;10.75;2.83;;;19.50;53.30;;;;;;5118993;27;20245;-74
2023/03/29 11:25:14;;;;;;;12.60;3.22;;;19.50;53.00;;;;;;5131222;27;20272;-73
2023/03/29 11:27:48;;;;;;;9.63;3.08;;;19.50;52.90;;;;;;5130937;27;20188;-75
2023/03/29 11:30:23;;;;;;;10.38;3.30;;;19.50;52.80;;;;;;5130924;27;20212;-74
2023/03/29 11:33:00;;;;;;;11.18;3.50;;;19.50;52.70;;;;;;5130884;27;20200;-75
2023/03/29 11:35:45;;;;;;;9.07;3.40;;;19.60;52.70;;;;;;5120010;27;20216;-74
2023/03/29 11:38:21;;;;;;;8.95;3.40;;;19.60;52.70;;;;;;5130931;27;20245;-73
2023/03/29 11:40:59;;;;;;;14.07;3.75;;;19.60;52.60;;;;;;5130651;27;20330;-74
2023/03/29 11:43:33;;;;;;;8.35;3.45;;;19.60;52.50;;;;;;5130742;27;20192;-75
2023/03/29 11:46:07;;;;;;;9.98;3.53;;;19.60;52.50;;;;;;5139370;27;20223;-75
2023/03/29 11:48:39;;;;;;;9.45;3.30;;;19.60;52.50;;;;;;5132622;27;20223;-73
2023/03/29 11:51:13;;;;;;;10.15;3.50;;;19.60;52.50;;;;;;5119478;27;20589;-76
2023/03/29 11:53:49;;;;;;;9.93;2.90;;;19.70;52.70;;;;;;5133142;27;20740;-75
2023/03/29 11:56:25;;;;;;;7.85;2.75;;;19.70;52.70;;;;;;5141542;27;20363;-76
2023/03/29 11:59:00;;;;;;;13.75;2.88;;;19.80;52.70;;;;;;5139021;27;20664;-74
2023/03/29 12:01:33;;;;;;;6.28;2.70;;;19.70;52.60;;;;;;5142379;27;20769;-74
2023/03/29 12:04:07;;;;;;;8.43;2.83;;;19.80;53.00;;;;;;5133558;27;20252;-75
2023/03/29 12:06:42;;;;;;;15.18;3.60;;;19.90;52.60;;;;;;5130385;27;20478;-78
2023/03/29 12:09:20;;;;;;;14.20;2.78;;;19.80;52.90;;;;;;5130424;27;20218;-76
2023/03/29 12:11:57;;;;;;;8.75;2.85;;;19.90;52.90;;;;;;5137915;27;20199;-78
2023/03/29 12:14:29;;;;;;;9.00;2.25;;;19.90;52.70;;;;;;5117281;27;20210;-71
2023/03/29 12:17:01;;;;;;;7.85;2.70;;;20.00;52.70;;;;;;5126346;27;20199;-73
2023/03/29 12:19:33;;;;;;;7.18;2.42;;;20.00;52.50;;;;;;5144484;27;20195;-72
2023/03/29 12:22:06;;;;;;;8.05;2.50;;;20.00;52.50;;;;;;5091070;27;20200;-71
2023/03/29 12:24:39;;;;;;;3.58;2.30;;;20.00;52.50;;;;;;5134676;27;20228;-73
2023/03/29 12:27:22;;;;;;;11.20;2.08;;;20.00;52.30;;;;;;5099131;27;20231;-75
2023/03/29 12:30:26;;;;;;;5.43;2.15;;;20.00;52.20;;;;;;5130487;27;20215;-71
2023/03/29 12:33:15;;;;;;;4.72;2.30;;;20.00;52.40;;;;;;5117747;27;20199;-71
2023/03/29 12:36:01;;;;;;;9.52;2.47;;;20.10;52.30;;;;;;5136908;27;20256;-74
2023/03/29 12:38:33;;;;;;;4.88;2.03;;;20.10;52.20;;;;;;5142474;27;20311;-71
2023/03/29 12:41:03;;;;;;;8.82;2.50;;;20.10;52.30;;;;;;5137846;27;20223;-71
2023/03/29 12:43:32;;;;;;;2.95;2.10;;;20.10;52.30;;;;;;5131168;27;20775;-72
2023/03/29 12:46:05;;;;;;;5.47;1.90;;;20.10;52.20;;;;;;5130551;27;20890;-69
2023/03/29 12:48:33;;;;;;;4.68;2.13;;;20.20;52.20;;;;;;5105521;27;20621;-70
2023/03/29 12:51:02;;;;;;;5.82;2.10;;;20.10;52.10;;;;;;5143794;27;20243;-71
2023/03/29 12:53:35;;;;;;;7.18;2.30;;;20.20;52.10;;;;;;5137612;27;20196;-73
2023/03/29 12:56:15;;;;;;;10.18;2.00;;;20.20;52.10;;;;;;5134482;27;20543;-73
2023/03/29 12:59:21;;;;;;;2.65;1.90;;;20.20;52.00;;;;;;5133236;27;20191;-74
2023/03/29 13:02:06;;;;;;;3.33;2.28;;;20.20;51.90;;;;;;5113225;27;21090;-71
2023/03/29 13:04:48;;;;;;;5.63;2.20;;;20.20;51.80;;;;;;5099093;27;20199;-73